createdAt,value
2023-05-17T00:02:46.809Z,102581.19
2023-05-17T00:07:39.493Z,102588.09
2023-05-17T00:12:29.682Z,102604.97
2023-05-17T00:17:19.769Z,102597.06
2023-05-17T00:22:10.011Z,102596.91
2023-05-17T00:27:02.669Z,102574.13
2023-05-17T00:31:52.766Z,102594.91
2023-05-17T00:36:42.733Z,102604.28
2023-05-17T00:41:32.968Z,102607.69
2023-05-17T00:46:26.212Z,102600.66
2023-05-17T00:51:17.665Z,102604.34
2023-05-17T00:56:08.874Z,102610.03
2023-05-17T01:00:59.111Z,102608.44
2023-05-17T01:05:52.159Z,102587.91
2023-05-17T01:10:53.160Z,102573.97
2023-05-17T01:15:49.774Z,102585.84
2023-05-17T01:20:42.204Z,102526.56
2023-05-17T01:25:53.261Z,102580.69
2023-05-17T01:30:48.217Z,102601.88
2023-05-17T01:35:39.999Z,102593.16
2023-05-17T01:40:30.379Z,102588.72
2023-05-17T01:45:27.381Z,102587.00
2023-05-17T01:50:25.935Z,102600.47
2023-05-17T01:55:21.307Z,102606.72
2023-05-17T02:00:12.683Z,102599.53
2023-05-17T02:05:05.179Z,102599.41
2023-05-17T02:09:57.744Z,102602.03
2023-05-17T02:14:47.657Z,102607.38
2023-05-17T02:19:40.054Z,102598.72
2023-05-17T02:24:30.858Z,102597.66
2023-05-17T02:29:23.046Z,102601.19
2023-05-17T02:34:13.032Z,102584.75
2023-05-17T02:39:02.986Z,102610.31
2023-05-17T02:43:52.892Z,102594.69
2023-05-17T02:48:45.369Z,102620.13
2023-05-17T02:53:35.037Z,102620.13
2023-05-17T02:58:26.730Z,102604.38
2023-05-17T03:03:17.056Z,102616.63
2023-05-17T03:08:09.878Z,102601.03
2023-05-17T03:12:59.884Z,102615.00
2023-05-17T03:17:54.507Z,102624.53
2023-05-17T03:22:44.505Z,102630.69
2023-05-17T03:27:37.203Z,102636.19
2023-05-17T03:32:28.103Z,102601.19
2023-05-17T03:37:18.122Z,102640.47
2023-05-17T03:42:09.787Z,102653.81
2023-05-17T03:47:02.540Z,102635.25
2023-05-17T03:51:52.579Z,102636.16
2023-05-17T03:56:47.203Z,102650.72
2023-05-17T04:01:38.114Z,102668.34
2023-05-17T04:06:31.415Z,102663.03
2023-05-17T04:11:27.921Z,102648.47
2023-05-17T04:16:19.207Z,102667.84
2023-05-17T04:21:15.193Z,102676.91
2023-05-17T04:26:45.732Z,102684.94
2023-05-17T04:31:57.581Z,102675.09
2023-05-17T04:36:47.426Z,102693.72
2023-05-17T04:41:45.664Z,102703.16
2023-05-17T04:46:39.536Z,102718.91
2023-05-17T04:51:32.068Z,102725.78
2023-05-17T04:56:21.889Z,102722.91
2023-05-17T05:01:15.158Z,102731.63
2023-05-17T05:06:04.987Z,102737.00
2023-05-17T05:10:55.344Z,102725.50
2023-05-17T05:16:29.674Z,102747.59
2023-05-17T05:21:19.876Z,102749.53
2023-05-17T05:26:17.129Z,102728.81
2023-05-17T05:31:07.402Z,102765.47
2023-05-17T05:36:08.433Z,102767.72
2023-05-17T05:40:58.490Z,102779.78
2023-05-17T05:45:48.743Z,102759.28
2023-05-17T05:50:38.973Z,102771.53
2023-05-17T05:55:35.780Z,102778.44
2023-05-17T06:00:28.618Z,102796.88
2023-05-17T06:05:18.735Z,102790.94
2023-05-17T06:10:10.015Z,102804.78
2023-05-17T06:15:02.544Z,102793.59
2023-05-17T06:19:52.876Z,102803.84
2023-05-17T06:24:42.864Z,102817.88
2023-05-17T06:29:32.806Z,102825.66
2023-05-17T06:34:25.420Z,102823.66
2023-05-17T06:39:15.468Z,102834.69
2023-05-17T06:44:05.379Z,102826.50
2023-05-17T06:48:55.350Z,102822.97
2023-05-17T06:53:47.931Z,102823.44
2023-05-17T06:58:38.447Z,102834.66
2023-05-17T07:03:29.120Z,102839.88
2023-05-17T07:08:19.295Z,102842.91
2023-05-17T07:13:11.537Z,102870.16
2023-05-17T07:18:01.551Z,102867.09
2023-05-17T07:22:51.352Z,102862.28
2023-05-17T07:27:41.070Z,102867.66
2023-05-17T07:32:33.674Z,102864.34
2023-05-17T07:37:23.694Z,102860.84
2023-05-17T07:42:13.584Z,102856.09
2023-05-17T07:47:03.583Z,102882.25
2023-05-17T07:51:56.551Z,102861.00
2023-05-17T07:56:46.347Z,102889.19
2023-05-17T08:01:36.070Z,102887.31
2023-05-17T08:06:25.855Z,102885.63
2023-05-17T08:11:18.781Z,102845.84
2023-05-17T08:16:14.171Z,102856.97
2023-05-17T08:21:04.981Z,102890.97
2023-05-17T08:25:54.639Z,102893.25
2023-05-17T08:30:47.118Z,102883.56
2023-05-17T08:35:37.202Z,102886.25
2023-05-17T08:40:27.922Z,102890.72
2023-05-17T08:45:19.132Z,102895.03
2023-05-17T08:50:13.080Z,102878.25
2023-05-17T08:55:07.710Z,102893.81
2023-05-17T08:59:58.253Z,102886.88
2023-05-17T09:04:48.005Z,102909.84
2023-05-17T09:09:40.697Z,102904.97
2023-05-17T09:14:36.539Z,102871.81
2023-05-17T09:19:26.613Z,102896.38
2023-05-17T09:24:16.978Z,102878.81
2023-05-17T09:29:11.285Z,102902.34
2023-05-17T09:34:02.530Z,102900.56
2023-05-17T09:38:56.720Z,102899.97
2023-05-17T09:43:46.682Z,102906.19
2023-05-17T09:48:44.259Z,102916.03
2023-05-17T09:53:38.573Z,102914.53
2023-05-17T09:58:29.259Z,102905.28
2023-05-17T10:03:19.251Z,102899.75
2023-05-17T10:08:13.623Z,102910.34
2023-05-17T10:13:04.758Z,102894.56
2023-05-17T10:17:55.222Z,102901.66
2023-05-17T10:22:46.545Z,102899.47
2023-05-17T10:27:39.357Z,102897.72
2023-05-17T10:32:31.978Z,102897.19
2023-05-17T10:37:24.418Z,102902.47
2023-05-17T10:42:17.432Z,102904.78
2023-05-17T10:47:11.454Z,102891.66
2023-05-17T10:52:01.738Z,102888.47
2023-05-17T10:56:52.470Z,102897.63
2023-05-17T11:01:53.283Z,102892.84
2023-05-17T11:06:46.444Z,102885.38
2023-05-17T11:11:36.951Z,102862.38
2023-05-17T11:16:31.079Z,102875.97
2023-05-17T11:21:22.749Z,102887.81
2023-05-17T11:26:20.562Z,102881.69
2023-05-17T11:31:11.600Z,102882.09
2023-05-17T11:36:08.441Z,102893.59
2023-05-17T11:41:01.471Z,102884.59
2023-05-17T11:45:57.610Z,102881.25
2023-05-17T11:50:49.381Z,102883.69
2023-05-17T11:55:41.934Z,102881.16
2023-05-17T12:00:31.856Z,102886.00
2023-05-17T12:05:26.465Z,102884.88
2023-05-17T12:10:17.020Z,102884.47
2023-05-17T12:15:07.686Z,102874.34
2023-05-17T12:19:57.871Z,102879.75
2023-05-17T12:24:50.389Z,102875.75
2023-05-17T12:29:40.891Z,102873.47
2023-05-17T12:34:34.377Z,102867.72
2023-05-17T12:39:26.250Z,102862.53
2023-05-17T12:44:18.730Z,102864.38
2023-05-17T12:49:11.343Z,102868.03
2023-05-17T12:54:02.257Z,102847.22
2023-05-17T12:59:07.856Z,102859.94
2023-05-17T13:04:00.509Z,102861.13
2023-05-17T13:09:01.564Z,102849.94
2023-05-17T13:13:51.427Z,102853.09
2023-05-17T13:18:51.817Z,102854.06
2023-05-17T13:23:50.887Z,102849.06
2023-05-17T13:28:44.754Z,102862.16
2023-05-17T13:33:34.930Z,102859.28
2023-05-17T13:38:24.816Z,102841.72
2023-05-17T13:43:17.385Z,102852.47
2023-05-17T13:48:07.840Z,102844.16
2023-05-17T13:52:57.880Z,102841.78
2023-05-17T13:57:48.588Z,102844.41
2023-05-17T14:02:41.586Z,102821.72
2023-05-17T14:07:31.699Z,102831.50
2023-05-17T14:12:21.550Z,102844.63
2023-05-17T14:17:13.719Z,102833.13
2023-05-17T14:22:06.357Z,102837.69
2023-05-17T14:26:58.053Z,102831.59
2023-05-17T14:31:48.055Z,102833.56
2023-05-17T14:36:38.582Z,102831.41
2023-05-17T14:41:31.144Z,102848.09
2023-05-17T14:46:21.299Z,102816.19
2023-05-17T14:51:13.374Z,102831.72
2023-05-17T14:56:03.585Z,102843.31
2023-05-17T15:01:05.087Z,102849.59
2023-05-17T15:06:00.000Z,102840.28
2023-05-17T15:10:49.849Z,102858.50
2023-05-17T15:15:40.694Z,102854.00
2023-05-17T15:20:33.272Z,102854.31
2023-05-17T15:25:23.660Z,102838.69
2023-05-17T15:30:14.868Z,102843.59
2023-05-17T15:35:05.815Z,102837.06
2023-05-17T15:39:58.676Z,102839.53
2023-05-17T15:44:48.592Z,102840.47
2023-05-17T15:49:39.426Z,102848.34
2023-05-17T15:54:29.573Z,102842.50
2023-05-17T15:59:22.484Z,102849.34
2023-05-17T16:04:12.524Z,102827.41
2023-05-17T16:09:02.321Z,102833.22
2023-05-17T16:13:57.520Z,102842.25
2023-05-17T16:18:50.582Z,102838.50
2023-05-17T16:23:42.921Z,102843.72
2023-05-17T16:28:33.115Z,102848.38
2023-05-17T16:33:23.299Z,102829.50
2023-05-17T16:38:16.328Z,102829.59
2023-05-17T16:43:06.993Z,102847.50
2023-05-17T16:47:56.913Z,102854.81
2023-05-17T16:52:46.904Z,102855.97
2023-05-17T16:57:42.177Z,102862.50
2023-05-17T17:02:32.264Z,102858.59
2023-05-17T17:07:22.314Z,102845.78
2023-05-17T17:12:23.586Z,102857.56
2023-05-17T17:17:17.348Z,102866.22
2023-05-17T17:22:08.549Z,102851.94
2023-05-17T17:26:58.643Z,102865.28
2023-05-17T17:31:48.521Z,102854.28
2023-05-17T17:36:40.921Z,102860.22
2023-05-17T17:41:32.839Z,102863.63
2023-05-17T17:46:24.719Z,102857.81
2023-05-17T17:57:39.488Z,102863.47
2023-05-17T18:02:37.445Z,102868.25
2023-05-17T18:07:49.011Z,102866.88
2023-05-17T18:29:04.242Z,102879.56
2023-05-17T18:33:56.377Z,102874.22
2023-05-17T18:38:47.186Z,102869.88
2023-05-17T18:48:48.295Z,102886.59
2023-05-17T18:53:41.696Z,102890.59
2023-05-17T18:58:45.647Z,102887.84
2023-05-17T19:03:40.520Z,102897.97
2023-05-17T19:08:34.723Z,102884.38
2023-05-17T19:13:24.718Z,102900.03
2023-05-17T19:18:16.872Z,102877.59
2023-05-17T19:23:07.060Z,102893.53
2023-05-17T19:27:59.624Z,102907.72
2023-05-17T19:32:50.708Z,102917.31
2023-05-17T19:37:40.661Z,102907.44
2023-05-17T19:42:30.780Z,102911.50
2023-05-17T19:47:25.266Z,102911.78
2023-05-17T19:52:15.402Z,102911.38
2023-05-17T19:57:05.422Z,102921.59
2023-05-17T20:01:57.687Z,102909.63
2023-05-17T20:06:50.410Z,102921.88
2023-05-17T20:11:41.016Z,102921.22
2023-05-17T20:16:31.163Z,102917.56
2023-05-17T20:21:23.052Z,102919.72
2023-05-17T20:26:17.189Z,102908.59
2023-05-17T20:31:07.310Z,102913.22
2023-05-17T20:35:58.095Z,102925.94
2023-05-17T20:40:48.282Z,102890.22
2023-05-17T20:45:42.668Z,102889.53
2023-05-17T20:50:32.571Z,102907.25
2023-05-17T20:55:22.521Z,102919.69
2023-05-17T21:00:16.991Z,102923.56
2023-05-17T21:05:11.042Z,102905.44
2023-05-17T21:10:01.358Z,102907.22
2023-05-17T21:15:04.196Z,102893.63
2023-05-17T21:20:01.103Z,102913.84
2023-05-17T21:24:56.277Z,102924.78
2023-05-17T21:29:46.178Z,102918.34
2023-05-17T21:34:38.623Z,102934.31
2023-05-17T21:39:28.588Z,102928.28
2023-05-17T21:44:21.146Z,102924.94
2023-05-17T21:49:11.028Z,102915.41
2023-05-17T21:54:00.880Z,102910.25
2023-05-17T21:58:52.343Z,102927.97
2023-05-17T22:03:47.677Z,102919.25
2023-05-17T22:08:37.568Z,102912.56
2023-05-17T22:13:27.705Z,102922.41
2023-05-17T22:18:19.646Z,102922.00
2023-05-17T22:23:12.388Z,102934.69
2023-05-17T22:28:02.368Z,102927.16
2023-05-17T22:32:54.878Z,102929.03
2023-05-17T22:37:45.602Z,102935.44
2023-05-17T22:42:38.291Z,102939.00
2023-05-17T22:47:28.282Z,102940.28
2023-05-17T22:52:18.910Z,102935.13
2023-05-17T22:57:09.769Z,102940.50
2023-05-17T23:02:02.413Z,102933.63
2023-05-17T23:06:52.366Z,102937.34
2023-05-17T23:11:42.245Z,102927.84
2023-05-17T23:16:32.331Z,102931.59
2023-05-17T23:21:24.893Z,102921.94
2023-05-17T23:26:14.881Z,102933.81
2023-05-17T23:31:05.996Z,102935.72
2023-05-17T23:35:56.952Z,102939.16
2023-05-17T23:40:49.493Z,102946.53
2023-05-17T23:45:39.600Z,102939.63
2023-05-17T23:50:32.625Z,102940.75
2023-05-17T23:55:25.466Z,102852.59
